createdAt,value
2023-01-11T00:00:39.886Z,2.15
2023-01-11T00:03:07.635Z,2.03
2023-01-11T00:05:42.931Z,2.17
2023-01-11T00:08:10.751Z,1.85
2023-01-11T00:10:38.669Z,2.58
2023-01-11T00:13:06.514Z,1.63
2023-01-11T00:15:35.793Z,2.38
2023-01-11T00:18:03.321Z,2.45
2023-01-11T00:20:30.754Z,1.80
2023-01-11T00:22:58.705Z,2.28
2023-01-11T00:25:26.291Z,2.28
2023-01-11T00:27:54.679Z,2.72
2023-01-11T00:30:21.897Z,1.95
2023-01-11T00:32:49.097Z,3.05
2023-01-11T00:35:16.665Z,2.03
2023-01-11T00:37:43.813Z,2.75
2023-01-11T00:40:11.464Z,2.92
2023-01-11T00:42:57.303Z,2.90
2023-01-11T00:45:43.185Z,1.92
2023-01-11T00:48:11.027Z,2.15
2023-01-11T00:50:40.935Z,3.40
2023-01-11T00:53:09.941Z,2.90
2023-01-11T00:55:37.582Z,3.33
2023-01-11T00:58:04.979Z,2.70
2023-01-11T01:00:32.243Z,4.10
2023-01-11T01:02:59.520Z,3.60
2023-01-11T01:05:26.849Z,2.58
2023-01-11T01:07:54.037Z,3.15
2023-01-11T01:10:21.447Z,3.65
2023-01-11T01:13:07.322Z,2.88
2023-01-11T01:15:36.256Z,2.60
2023-01-11T01:18:03.571Z,2.25
2023-01-11T01:20:30.698Z,2.42
2023-01-11T01:22:57.999Z,1.70
2023-01-11T01:25:25.312Z,1.85
2023-01-11T01:27:52.425Z,1.25
2023-01-11T01:30:19.601Z,1.67
2023-01-11T01:32:46.779Z,2.55
2023-01-11T01:35:15.495Z,2.67
2023-01-11T01:37:44.932Z,2.10
2023-01-11T01:40:12.795Z,2.13
2023-01-11T01:42:39.915Z,2.08
2023-01-11T01:45:24.850Z,3.22
2023-01-11T01:48:02.010Z,2.38
2023-01-11T01:50:34.348Z,2.33
2023-01-11T01:53:17.419Z,2.25
2023-01-11T01:55:51.906Z,2.33
2023-01-11T01:58:27.538Z,1.80
2023-01-11T02:00:54.727Z,2.00
2023-01-11T02:03:25.864Z,2.22
2023-01-11T02:05:53.933Z,2.28
2023-01-11T02:08:33.381Z,2.33
2023-01-11T02:11:01.334Z,3.35
2023-01-11T02:13:29.118Z,2.05
2023-01-11T02:16:09.116Z,3.92
2023-01-11T02:18:37.723Z,2.17
2023-01-11T02:21:31.062Z,2.60
2023-01-11T02:24:35.092Z,2.33
2023-01-11T02:27:45.912Z,2.30
2023-01-11T02:30:39.674Z,1.50
2023-01-11T02:33:51.546Z,2.35
2023-01-11T02:36:38.328Z,3.83
2023-01-11T02:39:36.929Z,2.40
2023-01-11T02:42:56.898Z,2.20
2023-01-11T02:46:02.519Z,2.25
2023-01-11T02:48:47.097Z,2.42
2023-01-11T02:51:27.240Z,2.28
2023-01-11T02:54:09.817Z,3.53
2023-01-11T02:56:42.559Z,1.90
2023-01-11T02:59:14.849Z,2.75
2023-01-11T03:01:55.719Z,2.47
2023-01-11T03:04:26.658Z,2.17
2023-01-11T03:07:27.868Z,2.17
2023-01-11T03:10:04.035Z,2.17
2023-01-11T03:12:52.438Z,3.53
2023-01-11T03:16:03.830Z,2.38
2023-01-11T03:18:58.226Z,2.65
2023-01-11T03:21:54.647Z,3.10
2023-01-11T03:24:50.840Z,2.47
2023-01-11T03:27:35.187Z,2.78
2023-01-11T03:30:21.999Z,2.13
2023-01-11T03:32:52.169Z,4.13
2023-01-11T03:35:32.037Z,2.70
2023-01-11T03:38:17.535Z,2.13
2023-01-11T03:40:59.029Z,2.20
2023-01-11T03:43:29.050Z,2.78
2023-01-11T03:46:04.290Z,2.00
2023-01-11T03:48:45.775Z,1.75
2023-01-11T03:51:19.535Z,1.85
2023-01-11T03:53:50.478Z,1.75
2023-01-11T03:56:23.882Z,2.65
2023-01-11T03:58:51.127Z,3.33
2023-01-11T04:01:18.343Z,2.95
2023-01-11T04:03:45.395Z,2.15
2023-01-11T04:06:13.109Z,2.45
2023-01-11T04:08:40.200Z,1.83
2023-01-11T04:11:07.908Z,2.65
2023-01-11T04:13:35.187Z,1.83
2023-01-11T04:16:02.331Z,2.70
2023-01-11T04:18:29.587Z,2.65
2023-01-11T04:20:56.618Z,2.17
2023-01-11T04:23:23.729Z,1.63
2023-01-11T04:25:51.011Z,2.25
2023-01-11T04:28:18.084Z,2.10
2023-01-11T04:30:45.155Z,2.53
2023-01-11T04:33:13.356Z,2.28
2023-01-11T04:35:40.796Z,2.10
2023-01-11T04:38:07.875Z,1.33
2023-01-11T04:40:34.937Z,2.83
2023-01-11T04:43:02.546Z,2.13
2023-01-11T04:45:30.726Z,1.88
2023-01-11T04:47:58.572Z,2.70
2023-01-11T04:50:27.160Z,2.92
2023-01-11T04:52:54.268Z,1.95
2023-01-11T04:55:21.726Z,1.38
2023-01-11T04:57:48.790Z,2.53
2023-01-11T05:00:16.455Z,1.80
2023-01-11T05:02:43.715Z,1.77
2023-01-11T05:05:12.158Z,2.03
2023-01-11T05:07:39.438Z,2.38
2023-01-11T05:10:07.700Z,2.45
2023-01-11T05:12:34.902Z,3.00
2023-01-11T05:15:02.616Z,3.40
2023-01-11T05:17:29.808Z,3.83
2023-01-11T05:19:56.949Z,4.78
2023-01-11T05:22:24.046Z,5.32
2023-01-11T05:24:51.286Z,3.80
2023-01-11T05:27:18.359Z,3.30
2023-01-11T05:29:45.527Z,3.05
2023-01-11T05:32:13.616Z,2.50
2023-01-11T05:34:40.674Z,2.88
2023-01-11T05:37:07.914Z,2.00
2023-01-11T05:39:34.965Z,2.25
2023-01-11T05:42:02.013Z,3.03
2023-01-11T05:44:47.588Z,3.05
2023-01-11T05:47:14.712Z,2.40
2023-01-11T05:49:41.804Z,2.28
2023-01-11T05:52:08.887Z,2.50
2023-01-11T05:54:35.989Z,2.50
2023-01-11T05:57:03.134Z,2.00
2023-01-11T05:59:32.116Z,2.50
2023-01-11T06:01:59.680Z,2.15
2023-01-11T06:04:27.550Z,2.50
2023-01-11T06:06:54.669Z,1.73
2023-01-11T06:09:22.158Z,2.30
2023-01-11T06:11:50.649Z,1.73
2023-01-11T06:14:17.831Z,2.58
2023-01-11T06:16:45.040Z,2.20
2023-01-11T06:19:12.217Z,2.20
2023-01-11T06:21:39.938Z,2.28
2023-01-11T06:24:07.482Z,1.92
2023-01-11T06:26:34.526Z,2.60
2023-01-11T06:29:01.635Z,2.13
2023-01-11T06:31:28.792Z,2.38
2023-01-11T06:33:55.815Z,2.90
2023-01-11T06:36:22.857Z,2.80
2023-01-11T06:38:49.888Z,2.60
2023-01-11T06:41:16.995Z,2.60
2023-01-11T06:43:44.165Z,2.30
2023-01-11T06:46:14.031Z,2.60
2023-01-11T06:48:41.487Z,1.92
2023-01-11T06:51:11.121Z,2.30
2023-01-11T06:53:39.325Z,2.25
2023-01-11T06:56:06.958Z,2.33
2023-01-11T06:58:34.021Z,1.95
2023-01-11T07:01:01.335Z,2.65
2023-01-11T07:03:28.653Z,2.53
2023-01-11T07:05:57.632Z,2.35
2023-01-11T07:08:26.072Z,3.42
2023-01-11T07:10:53.531Z,2.30
2023-01-11T07:13:21.379Z,2.08
2023-01-11T07:15:50.902Z,2.40
2023-01-11T07:18:19.481Z,2.47
2023-01-11T07:20:47.203Z,2.58
2023-01-11T07:23:14.547Z,2.35
2023-01-11T07:25:41.719Z,2.40
2023-01-11T07:28:09.788Z,2.58
2023-01-11T07:30:56.082Z,2.97
2023-01-11T07:33:24.071Z,3.58
2023-01-11T07:35:51.199Z,2.28
2023-01-11T07:38:18.387Z,2.65
2023-01-11T07:40:45.439Z,3.53
2023-01-11T07:43:18.464Z,2.28
2023-01-11T07:45:49.680Z,3.28
2023-01-11T07:48:26.249Z,2.47
2023-01-11T07:50:54.349Z,3.22
2023-01-11T07:53:22.145Z,2.72
2023-01-11T07:55:49.254Z,2.70
2023-01-11T07:58:16.675Z,2.17
2023-01-11T08:00:44.207Z,3.22
2023-01-11T08:03:11.430Z,2.13
2023-01-11T08:05:39.203Z,2.80
2023-01-11T08:08:07.003Z,3.22
2023-01-11T08:10:34.675Z,3.42
2023-01-11T08:13:20.792Z,3.55
2023-01-11T08:15:48.053Z,4.28
2023-01-11T08:18:15.170Z,3.45
2023-01-11T08:20:42.280Z,3.13
2023-01-11T08:23:10.809Z,2.78
2023-01-11T08:25:38.307Z,2.63
2023-01-11T08:28:07.596Z,2.85
2023-01-11T08:30:35.840Z,2.78
2023-01-11T08:33:03.707Z,3.75
2023-01-11T08:35:32.255Z,2.33
2023-01-11T08:37:59.336Z,2.38
2023-01-11T08:40:26.495Z,3.70
2023-01-11T08:42:57.360Z,4.07
2023-01-11T08:45:25.411Z,4.25
2023-01-11T08:47:53.378Z,3.25
2023-01-11T08:50:22.295Z,3.10
2023-01-11T08:52:51.379Z,2.72
2023-01-11T08:55:20.501Z,3.27
2023-01-11T08:57:47.746Z,3.65
2023-01-11T09:00:15.584Z,3.10
2023-01-11T09:02:43.075Z,2.80
2023-01-11T09:05:10.444Z,2.72
2023-01-11T09:07:37.608Z,2.67
2023-01-11T09:10:05.318Z,3.63
2023-01-11T09:12:32.909Z,1.90
2023-01-11T09:15:00.608Z,3.30
2023-01-11T09:17:28.104Z,2.83
2023-01-11T09:19:55.933Z,1.83
2023-01-11T09:22:23.328Z,2.70
2023-01-11T09:24:50.551Z,2.38
2023-01-11T09:27:17.702Z,2.03
2023-01-11T09:29:46.316Z,1.90
2023-01-11T09:32:13.529Z,2.22
2023-01-11T09:34:42.929Z,2.95
2023-01-11T09:37:10.145Z,3.38
2023-01-11T09:39:37.361Z,2.53
2023-01-11T09:42:28.100Z,2.25
2023-01-11T09:45:01.817Z,3.05
2023-01-11T09:47:45.405Z,1.40
2023-01-11T09:50:22.146Z,2.85
2023-01-11T09:52:55.453Z,1.88
2023-01-11T09:55:43.422Z,2.53
2023-01-11T09:59:01.749Z,3.72
2023-01-11T10:02:05.648Z,1.88
2023-01-11T10:04:46.115Z,1.92
2023-01-11T10:07:29.046Z,1.85
2023-01-11T10:18:39.409Z,1.70
2023-01-11T10:19:49.272Z,1.50
2023-01-11T10:22:39.960Z,2.17
2023-01-11T10:25:35.004Z,3.00
2023-01-11T10:28:35.296Z,2.15
2023-01-11T10:31:28.657Z,1.55
2023-01-11T10:34:34.817Z,1.95
2023-01-11T10:37:34.375Z,1.55
2023-01-11T10:40:30.586Z,2.10
2023-01-11T10:43:17.155Z,1.45
2023-01-11T10:45:59.626Z,1.75
2023-01-11T10:48:29.391Z,2.33
2023-01-11T10:51:17.950Z,2.28
2023-01-11T10:54:20.716Z,1.73
2023-01-11T10:57:20.213Z,1.90
2023-01-11T10:59:53.982Z,1.63
2023-01-11T11:02:38.506Z,1.75
2023-01-11T11:05:39.518Z,1.95
2023-01-11T11:08:26.521Z,2.22
2023-01-11T11:11:09.720Z,1.80
2023-01-11T11:14:04.597Z,1.48
2023-01-11T11:17:18.390Z,1.63
2023-01-11T11:19:45.541Z,1.63
2023-01-11T11:22:13.373Z,1.42
2023-01-11T11:25:01.962Z,1.85
2023-01-11T11:27:38.591Z,3.10
2023-01-11T11:30:06.783Z,2.10
2023-01-11T11:32:38.400Z,2.22
2023-01-11T11:35:08.175Z,2.55
2023-01-11T11:37:42.024Z,1.77
2023-01-11T11:40:34.143Z,2.78
2023-01-11T11:45:51.893Z,1.23
2023-01-11T11:48:19.182Z,1.30
2023-01-11T11:50:48.495Z,1.50
2023-01-11T11:53:34.332Z,2.03
2023-01-11T11:56:34.419Z,1.48
2023-01-11T11:59:10.285Z,1.77
2023-01-11T12:01:40.555Z,1.85
2023-01-11T12:04:24.102Z,1.85
2023-01-11T12:07:28.383Z,1.55
2023-01-11T12:10:02.464Z,2.15
2023-01-11T12:12:32.289Z,2.22
2023-01-11T12:15:27.418Z,2.00
2023-01-11T12:17:56.084Z,1.35
2023-01-11T12:20:23.030Z,2.05
2023-01-11T12:23:09.591Z,2.42
2023-01-11T12:26:00.008Z,2.50
2023-01-11T12:29:00.682Z,2.03
2023-01-11T12:31:47.814Z,2.03
2023-01-11T12:34:37.527Z,1.52
2023-01-11T12:37:38.211Z,3.03
2023-01-11T12:40:29.828Z,2.72
2023-01-11T12:43:50.357Z,2.88
2023-01-11T12:46:41.399Z,2.42
2023-01-11T12:49:30.292Z,2.08
2023-01-11T12:52:16.193Z,2.17
2023-01-11T12:55:23.706Z,2.60
2023-01-11T12:58:14.482Z,2.38
2023-01-11T13:01:18.441Z,2.22
2023-01-11T13:03:56.225Z,2.63
2023-01-11T13:06:40.984Z,2.53
2023-01-11T13:09:20.873Z,2.25
2023-01-11T13:12:21.450Z,2.28
2023-01-11T13:15:17.577Z,2.05
2023-01-11T13:18:05.541Z,3.10
2023-01-11T13:21:02.458Z,2.00
2023-01-11T13:23:54.849Z,2.30
2023-01-11T13:26:28.461Z,2.22
2023-01-11T13:29:01.775Z,4.35
2023-01-11T13:31:31.765Z,2.55
2023-01-11T13:34:07.402Z,3.33
2023-01-11T13:36:43.848Z,2.72
2023-01-11T13:39:31.851Z,3.92
2023-01-11T13:42:14.157Z,2.72
2023-01-11T13:44:53.984Z,3.08
2023-01-11T13:47:44.551Z,2.88
2023-01-11T13:50:27.633Z,2.50
2023-01-11T13:53:42.062Z,1.77
2023-01-11T13:56:30.524Z,1.90
2023-01-11T13:59:13.369Z,2.20
2023-01-11T14:02:11.176Z,2.00
2023-01-11T14:04:52.294Z,1.70
2023-01-11T14:08:00.800Z,2.40
2023-01-11T14:10:46.603Z,1.95
2023-01-11T14:14:25.993Z,2.25
2023-01-11T14:17:36.664Z,1.55
2023-01-11T14:20:14.847Z,2.05
2023-01-11T14:23:04.385Z,2.00
2023-01-11T14:25:51.559Z,3.28
2023-01-11T14:28:51.881Z,2.33
2023-01-11T14:32:02.007Z,3.28
2023-01-11T14:35:04.056Z,2.53
2023-01-11T14:37:50.793Z,3.55
2023-01-11T14:40:51.146Z,2.45
2023-01-11T14:43:48.699Z,2.05
2023-01-11T14:46:53.008Z,2.05
2023-01-11T14:49:42.021Z,2.15
2023-01-11T14:52:38.478Z,2.70
2023-01-11T14:55:22.351Z,3.45
2023-01-11T14:57:55.376Z,3.38
2023-01-11T15:00:22.332Z,4.25
2023-01-11T15:03:01.325Z,4.95
2023-01-11T15:05:31.589Z,5.45
2023-01-11T15:08:45.305Z,5.53
2023-01-11T15:11:39.242Z,3.60
2023-01-11T15:14:32.686Z,3.17
2023-01-11T15:17:20.847Z,2.97
2023-01-11T15:19:50.386Z,3.50
2023-01-11T15:22:35.841Z,3.97
2023-01-11T15:25:07.971Z,3.95
2023-01-11T15:27:39.728Z,7.30
2023-01-11T15:32:37.082Z,9.77
2023-01-11T15:35:33.564Z,20.98
2023-01-11T15:38:15.882Z,21.98
2023-01-11T15:40:46.603Z,22.60
2023-01-11T15:43:49.718Z,37.40
2023-01-11T15:47:19.090Z,34.00
2023-01-11T15:50:29.687Z,24.38
2023-01-11T15:53:26.564Z,17.30
2023-01-11T15:57:06.384Z,14.02
2023-01-11T16:00:06.468Z,12.07
2023-01-11T16:02:57.463Z,8.98
2023-01-11T16:05:32.465Z,9.02
2023-01-11T16:08:32.874Z,8.48
2023-01-11T16:11:32.204Z,6.65
2023-01-11T16:14:26.545Z,5.80
2023-01-11T16:16:55.893Z,7.20
2023-01-11T16:19:29.376Z,5.00
2023-01-11T16:21:59.399Z,5.35
2023-01-11T16:24:32.047Z,6.00
2023-01-11T16:27:03.728Z,5.78
2023-01-11T16:29:36.920Z,5.85
2023-01-11T16:32:20.438Z,5.90
2023-01-11T16:34:52.216Z,7.25
2023-01-11T16:40:28.492Z,7.18
2023-01-11T16:43:22.344Z,6.85
2023-01-11T16:45:54.241Z,7.13
2023-01-11T16:48:23.679Z,7.00
2023-01-11T16:51:10.693Z,6.93
2023-01-11T16:53:42.773Z,6.85
2023-01-11T16:56:22.574Z,7.18
2023-01-11T16:59:14.681Z,7.70
2023-01-11T17:04:34.987Z,10.25
2023-01-11T17:07:25.423Z,11.50
2023-01-11T17:09:52.707Z,7.65
2023-01-11T17:12:26.512Z,6.13
2023-01-11T17:15:23.501Z,5.78
2023-01-11T17:17:51.158Z,6.07
2023-01-11T17:20:25.209Z,6.10
2023-01-11T17:22:53.922Z,4.85
2023-01-11T17:25:43.581Z,5.03
2023-01-11T17:28:19.713Z,4.97
2023-01-11T17:30:50.737Z,4.88
2023-01-11T17:33:33.009Z,6.80
2023-01-11T17:36:00.863Z,9.65
2023-01-11T17:38:28.785Z,9.10
2023-01-11T17:40:56.931Z,7.63
2023-01-11T17:43:46.230Z,7.10
2023-01-11T17:46:19.008Z,5.10
2023-01-11T17:48:58.517Z,5.30
2023-01-11T17:51:35.413Z,4.93
2023-01-11T17:54:02.768Z,5.20
2023-01-11T17:56:32.834Z,5.75
2023-01-11T17:59:11.796Z,5.65
2023-01-11T18:01:39.158Z,6.55
2023-01-11T18:04:06.356Z,6.78
2023-01-11T18:06:41.534Z,5.03
2023-01-11T18:09:22.347Z,3.88
2023-01-11T18:11:51.448Z,3.55
2023-01-11T18:14:25.879Z,4.55
2023-01-11T18:16:57.191Z,3.38
2023-01-11T18:19:35.553Z,4.13
2023-01-11T18:22:02.696Z,3.67
2023-01-11T18:24:43.232Z,4.20
2023-01-11T18:27:24.949Z,3.67
2023-01-11T18:29:54.096Z,4.72
2023-01-11T18:32:22.135Z,4.15
2023-01-11T18:34:53.053Z,4.90
2023-01-11T18:37:22.093Z,4.87
2023-01-11T18:39:51.830Z,4.63
2023-01-11T18:42:24.116Z,3.78
2023-01-11T18:44:51.400Z,3.47
2023-01-11T18:47:23.407Z,3.65
2023-01-11T18:49:52.284Z,14.98
2023-01-11T18:52:22.039Z,11.60
2023-01-11T18:54:49.178Z,8.95
2023-01-11T18:57:16.463Z,9.07
2023-01-11T18:59:43.492Z,8.30
2023-01-11T19:04:56.238Z,6.35
2023-01-11T19:07:25.479Z,13.85
2023-01-11T19:09:55.105Z,7.47
2023-01-11T19:12:23.498Z,5.97
2023-01-11T19:14:50.907Z,5.43
2023-01-11T19:17:18.267Z,4.20
2023-01-11T19:19:45.319Z,5.05
2023-01-11T19:22:12.489Z,4.32
2023-01-11T19:24:40.488Z,4.82
2023-01-11T19:27:07.820Z,5.53
2023-01-11T19:29:34.927Z,4.85
2023-01-11T19:32:02.203Z,5.65
2023-01-11T19:34:29.272Z,4.20
2023-01-11T19:36:56.466Z,4.32
2023-01-11T19:39:23.505Z,3.80
2023-01-11T19:42:16.930Z,3.30
2023-01-11T19:44:43.974Z,4.22
2023-01-11T19:47:15.706Z,4.45
2023-01-11T19:52:19.260Z,2.72
2023-01-11T19:54:48.568Z,2.67
2023-01-11T19:57:20.402Z,2.92
2023-01-11T19:59:49.462Z,3.92
2023-01-11T20:02:20.998Z,3.50
2023-01-11T20:04:48.284Z,2.65
2023-01-11T20:07:16.193Z,2.88
2023-01-11T20:09:44.783Z,1.98
2023-01-11T20:12:15.754Z,2.33
2023-01-11T20:14:44.475Z,3.33
2023-01-11T20:17:12.276Z,2.38
2023-01-11T20:19:39.445Z,2.25
2023-01-11T20:22:06.566Z,2.70
2023-01-11T20:24:33.707Z,3.03
2023-01-11T20:27:03.028Z,2.88
2023-01-11T20:29:30.450Z,2.25
2023-01-11T20:32:13.418Z,1.70
2023-01-11T20:34:45.169Z,2.08
2023-01-11T20:37:12.269Z,1.80
2023-01-11T20:39:39.362Z,1.33
2023-01-11T20:42:06.528Z,1.63
2023-01-11T20:44:33.780Z,1.13
2023-01-11T20:47:01.154Z,0.90
2023-01-11T20:49:29.940Z,1.30
2023-01-11T20:51:57.394Z,2.55
2023-01-11T20:54:24.699Z,1.98
2023-01-11T20:56:52.276Z,1.55
2023-01-11T20:59:20.627Z,1.98
2023-01-11T21:01:49.322Z,0.88
2023-01-11T21:04:18.340Z,1.10
2023-01-11T21:06:50.877Z,1.38
2023-01-11T21:09:19.090Z,1.00
2023-01-11T21:11:53.193Z,1.23
2023-01-11T21:14:21.887Z,0.95
2023-01-11T21:16:49.266Z,0.80
2023-01-11T21:19:16.495Z,0.93
2023-01-11T21:21:43.981Z,2.47
2023-01-11T21:24:15.180Z,1.67
2023-01-11T21:26:45.318Z,1.35
2023-01-11T21:29:13.187Z,1.65
2023-01-11T21:31:40.968Z,1.35
2023-01-11T21:34:10.889Z,1.00
2023-01-11T21:36:38.334Z,1.02
2023-01-11T21:39:05.518Z,0.95
2023-01-11T21:41:52.525Z,0.75
2023-01-11T21:44:22.665Z,1.35
2023-01-11T21:46:50.406Z,0.75
2023-01-11T21:49:18.000Z,0.98
2023-01-11T21:51:45.056Z,2.20
2023-01-11T21:54:15.190Z,1.67
2023-01-11T21:56:42.384Z,1.27
2023-01-11T21:59:09.948Z,1.80
2023-01-11T22:01:39.035Z,0.75
2023-01-11T22:04:13.007Z,2.08
2023-01-11T22:06:42.737Z,1.83
2023-01-11T22:09:12.056Z,0.90
2023-01-11T22:11:39.807Z,0.73
2023-01-11T22:14:08.869Z,2.05
2023-01-11T22:16:37.130Z,1.27
2023-01-11T22:19:07.520Z,1.23
2023-01-11T22:21:36.711Z,0.95
2023-01-11T22:24:05.404Z,0.88
2023-01-11T22:26:35.806Z,1.42
2023-01-11T22:29:12.511Z,1.30
2023-01-11T22:32:01.049Z,1.63
2023-01-11T22:34:28.597Z,1.65
2023-01-11T22:36:55.900Z,1.25
2023-01-11T22:39:24.213Z,1.48
2023-01-11T22:41:51.429Z,2.22
2023-01-11T22:44:19.646Z,0.95
2023-01-11T22:46:47.154Z,2.17
2023-01-11T22:49:15.059Z,1.15
2023-01-11T22:51:43.744Z,1.67
2023-01-11T22:54:11.474Z,0.88
2023-01-11T22:56:38.644Z,1.50
2023-01-11T22:59:05.866Z,1.45
2023-01-11T23:01:38.432Z,1.27
2023-01-11T23:04:08.091Z,1.17
2023-01-11T23:06:39.150Z,1.38
2023-01-11T23:09:11.409Z,1.05
2023-01-11T23:11:59.259Z,1.23
2023-01-11T23:14:30.104Z,1.27
2023-01-11T23:17:00.952Z,1.27
2023-01-11T23:19:28.122Z,1.20
2023-01-11T23:21:55.951Z,1.45
2023-01-11T23:24:23.796Z,1.38
2023-01-11T23:26:51.250Z,1.60
2023-01-11T23:29:18.303Z,1.33
2023-01-11T23:31:45.374Z,0.85
2023-01-11T23:34:13.279Z,1.30
2023-01-11T23:36:43.762Z,2.35
2023-01-11T23:39:15.140Z,0.90
2023-01-11T23:42:00.994Z,1.42
2023-01-11T23:44:28.343Z,0.80
2023-01-11T23:47:14.222Z,2.13
2023-01-11T23:49:43.664Z,0.93
2023-01-11T23:52:10.958Z,0.75
2023-01-11T23:54:38.103Z,0.88
2023-01-11T23:57:05.462Z,1.98
2023-01-11T23:59:32.992Z,0.85
